createdAt,value
2023-05-03T00:04:28.830Z,99961.16
2023-05-03T00:09:32.060Z,99967.34
2023-05-03T00:14:35.410Z,99954.72
2023-05-03T00:19:40.259Z,99955.44
2023-05-03T00:24:43.914Z,99944.06
2023-05-03T00:29:47.858Z,99925.75
2023-05-03T00:34:56.265Z,99936.94
2023-05-03T00:39:59.509Z,99935.78
2023-05-03T00:45:05.034Z,99930.31
2023-05-03T00:50:12.119Z,99935.47
2023-05-03T00:55:16.891Z,99919.59
2023-05-03T01:00:22.401Z,99921.16
2023-05-03T01:05:34.584Z,99913.28
2023-05-03T01:10:48.044Z,99920.44
2023-05-03T01:16:00.212Z,99880.41
2023-05-03T01:21:06.868Z,99909.09
2023-05-03T01:26:21.857Z,99901.09
2023-05-03T01:31:30.357Z,99891.56
2023-05-03T01:36:36.477Z,99891.56
2023-05-03T01:41:43.103Z,99878.41
2023-05-03T01:46:47.492Z,99890.72
2023-05-03T01:51:50.765Z,99878.28
2023-05-03T01:56:55.731Z,99881.59
2023-05-03T02:01:59.019Z,99883.75
2023-05-03T02:07:02.331Z,99867.47
2023-05-03T02:12:07.440Z,99858.22
2023-05-03T02:17:10.576Z,99854.13
2023-05-03T02:22:13.889Z,99845.13
2023-05-03T02:27:18.631Z,99843.69
2023-05-03T02:32:21.999Z,99845.81
2023-05-03T02:37:25.509Z,99839.00
2023-05-03T02:42:30.174Z,99838.09
2023-05-03T02:47:33.674Z,99835.72
2023-05-03T02:52:37.117Z,99844.00
2023-05-03T02:57:42.686Z,99841.41
2023-05-03T03:02:46.257Z,99837.88
2023-05-03T03:07:49.748Z,99827.78
2023-05-03T03:12:54.510Z,99840.31
2023-05-03T03:17:58.492Z,99836.63
2023-05-03T03:23:02.188Z,99824.91
2023-05-03T03:28:07.111Z,99835.00
2023-05-03T03:33:11.668Z,99841.88
2023-05-03T03:38:15.067Z,99842.66
2023-05-03T03:43:19.802Z,99837.34
2023-05-03T03:48:23.017Z,99841.28
2023-05-03T03:53:26.549Z,99851.38
2023-05-03T03:58:31.212Z,99855.66
2023-05-03T04:03:34.744Z,99851.41
2023-05-03T04:08:38.140Z,99866.63
2023-05-03T04:13:43.416Z,99846.00
2023-05-03T04:18:46.800Z,99843.22
2023-05-03T04:23:51.375Z,99842.63
2023-05-03T04:28:56.117Z,99833.59
2023-05-03T04:33:59.406Z,99839.63
2023-05-03T04:39:02.637Z,99850.19
2023-05-03T04:44:08.187Z,99842.50
2023-05-03T04:49:11.432Z,99857.53
2023-05-03T04:54:14.711Z,99861.16
2023-05-03T04:59:19.596Z,99879.75
2023-05-03T05:04:22.827Z,99889.09
2023-05-03T05:09:27.351Z,99895.28
2023-05-03T05:14:32.924Z,99900.34
2023-05-03T05:19:36.473Z,99899.50
2023-05-03T05:24:39.919Z,99879.28
2023-05-03T05:29:44.558Z,99869.75
2023-05-03T05:34:53.107Z,99870.81
2023-05-03T05:39:57.123Z,99866.09
2023-05-03T05:45:01.725Z,99901.47
2023-05-03T05:50:14.860Z,99904.91
2023-05-03T05:55:21.463Z,99904.94
2023-05-03T06:00:26.325Z,99924.44
2023-05-03T06:05:29.638Z,99926.00
2023-05-03T06:10:32.997Z,99898.31
2023-05-03T06:15:37.810Z,99900.06
2023-05-03T06:20:41.253Z,99891.31
2023-05-03T06:25:47.485Z,99896.06
2023-05-03T06:30:52.669Z,99886.28
2023-05-03T06:35:56.657Z,99901.00
2023-05-03T06:40:59.816Z,99907.53
2023-05-03T06:46:04.604Z,99914.78
2023-05-03T06:51:07.916Z,99904.47
2023-05-03T06:56:11.361Z,99926.66
2023-05-03T07:01:17.604Z,99922.34
2023-05-03T07:06:23.209Z,99919.19
2023-05-03T07:11:26.780Z,99917.84
2023-05-03T07:16:31.540Z,99940.66
2023-05-03T07:21:35.378Z,99956.97
2023-05-03T07:26:38.898Z,99953.78
2023-05-03T07:31:44.970Z,99958.81
2023-05-03T07:36:48.150Z,99957.06
2023-05-03T07:41:51.367Z,99950.94
2023-05-03T07:46:55.974Z,99971.19
2023-05-03T07:52:00.164Z,99965.22
2023-05-03T07:57:04.036Z,99997.03
2023-05-03T08:02:09.215Z,99994.31
2023-05-03T08:07:13.232Z,100001.56
2023-05-03T08:12:16.766Z,100018.13
2023-05-03T08:17:22.601Z,100009.34
2023-05-03T08:22:27.075Z,100006.31
2023-05-03T08:27:30.437Z,100001.13
2023-05-03T08:32:35.240Z,100020.91
2023-05-03T08:37:41.616Z,100021.00
2023-05-03T08:42:46.169Z,100006.88
2023-05-03T08:47:55.558Z,100031.66
2023-05-03T08:53:00.470Z,99997.22
2023-05-03T08:58:08.229Z,100005.25
2023-05-03T09:03:13.327Z,100010.94
2023-05-03T09:08:17.306Z,100023.13
2023-05-03T09:13:20.618Z,100032.50
2023-05-03T09:18:25.642Z,100039.75
2023-05-03T09:23:32.553Z,100029.53
2023-05-03T09:28:42.331Z,100027.00
2023-05-03T09:33:47.157Z,100042.09
2023-05-03T09:38:51.701Z,100039.78
2023-05-03T09:43:56.307Z,100044.41
2023-05-03T09:49:01.310Z,100053.44
2023-05-03T09:54:05.381Z,100068.50
2023-05-03T09:59:11.529Z,100065.84
2023-05-03T10:04:19.993Z,100045.88
2023-05-03T10:09:30.278Z,100043.16
2023-05-03T10:14:33.959Z,100039.91
2023-05-03T10:19:47.670Z,100033.00
2023-05-03T10:25:09.872Z,100030.34
2023-05-03T10:30:31.335Z,100031.19
2023-05-03T10:35:36.376Z,100040.91
2023-05-03T10:40:44.111Z,100055.72
2023-05-03T10:45:48.890Z,100046.44
2023-05-03T10:50:53.918Z,100042.16
2023-05-03T10:56:05.571Z,100027.78
2023-05-03T11:01:13.361Z,100026.69
2023-05-03T11:06:34.587Z,100021.59
2023-05-03T11:11:39.695Z,100014.66
2023-05-03T11:16:48.222Z,100014.28
2023-05-03T11:21:53.718Z,100018.34
2023-05-03T11:26:57.301Z,100009.44
2023-05-03T11:32:01.936Z,100008.53
2023-05-03T11:37:09.621Z,100016.47
2023-05-03T11:42:12.858Z,100008.69
2023-05-03T11:47:16.335Z,99999.47
2023-05-03T11:52:24.415Z,99993.56
2023-05-03T11:57:27.812Z,100011.38
2023-05-03T12:02:31.272Z,100007.78
2023-05-03T12:07:36.130Z,99995.16
2023-05-03T12:12:42.932Z,100004.53
2023-05-03T12:17:57.015Z,100009.94
2023-05-03T12:23:09.953Z,100009.84
2023-05-03T12:28:20.064Z,100027.59
2023-05-03T12:33:27.081Z,100024.88
2023-05-03T12:38:36.214Z,100015.19
2023-05-03T12:43:43.361Z,100021.47
2023-05-03T12:48:47.208Z,100017.88
2023-05-03T12:53:55.319Z,100022.44
2023-05-03T12:59:29.785Z,100011.19
2023-05-03T13:04:56.001Z,100006.78
2023-05-03T13:14:55.989Z,100007.38
2023-05-03T13:19:59.395Z,100014.88
2023-05-03T13:25:04.576Z,100018.78
2023-05-03T13:30:10.135Z,100018.19
2023-05-03T13:35:13.832Z,100009.03
2023-05-03T13:40:19.001Z,100013.84
2023-05-03T13:45:24.028Z,100003.41
2023-05-03T13:50:29.915Z,100008.00
2023-05-03T13:55:34.693Z,100018.44
2023-05-03T14:00:38.052Z,100019.44
2023-05-03T14:05:41.471Z,100012.00
2023-05-03T14:10:46.420Z,100016.34
2023-05-03T14:15:49.984Z,100020.28
2023-05-03T14:20:53.393Z,100006.72
2023-05-03T14:25:58.325Z,100017.38
2023-05-03T14:31:01.912Z,100013.88
2023-05-03T14:36:08.614Z,100013.50
2023-05-03T14:41:13.359Z,100004.31
2023-05-03T14:46:16.628Z,100016.59
2023-05-03T14:51:20.176Z,100007.28
2023-05-03T14:56:24.889Z,99998.34
2023-05-03T15:01:28.421Z,100013.72
2023-05-03T15:06:32.471Z,100008.06
2023-05-03T15:11:37.036Z,100022.25
2023-05-03T15:16:40.651Z,100033.25
2023-05-03T15:21:49.515Z,100033.72
2023-05-03T15:26:54.199Z,100034.63
2023-05-03T15:31:57.457Z,100039.75
2023-05-03T15:37:00.892Z,100036.56
2023-05-03T15:42:06.837Z,100049.03
2023-05-03T15:47:10.213Z,100028.13
2023-05-03T15:52:13.623Z,100048.84
2023-05-03T15:57:18.811Z,100040.16
2023-05-03T16:02:22.047Z,100045.25
2023-05-03T16:07:26.622Z,100044.78
2023-05-03T16:12:31.222Z,100056.69
2023-05-03T16:17:34.668Z,100058.97
2023-05-03T16:22:38.101Z,100054.28
2023-05-03T16:27:42.863Z,100054.94
2023-05-03T16:32:46.771Z,100058.69
2023-05-03T16:37:51.540Z,100053.88
2023-05-03T16:42:58.184Z,100053.31
2023-05-03T16:48:04.782Z,100071.72
2023-05-03T16:53:09.750Z,100081.13
2023-05-03T16:58:14.498Z,100088.53
2023-05-03T17:03:17.931Z,100093.13
2023-05-03T17:08:21.723Z,100094.16
2023-05-03T17:13:26.410Z,100115.81
2023-05-03T17:18:29.729Z,100129.56
2023-05-03T17:23:35.891Z,100137.00
2023-05-03T17:28:41.653Z,100139.13
2023-05-03T17:33:45.031Z,100145.63
2023-05-03T17:38:49.443Z,100142.28
2023-05-03T17:43:55.396Z,100157.03
2023-05-03T17:48:59.280Z,100161.06
2023-05-03T17:54:02.621Z,100161.75
2023-05-03T17:59:07.364Z,100168.59
2023-05-03T18:04:10.988Z,100172.69
2023-05-03T18:09:14.236Z,100173.06
2023-05-03T18:14:19.060Z,100166.38
2023-05-03T18:19:22.699Z,100163.19
2023-05-03T18:24:26.045Z,100167.94
2023-05-03T18:29:30.769Z,100154.94
2023-05-03T18:34:37.465Z,100162.19
2023-05-03T18:39:40.736Z,100150.75
2023-05-03T18:44:46.150Z,100146.34
2023-05-03T18:50:01.186Z,100139.50
2023-05-03T18:55:04.910Z,100149.94
2023-05-03T19:00:11.470Z,100159.75
2023-05-03T19:05:15.533Z,100155.34
2023-05-03T19:10:20.007Z,100167.00
2023-05-03T19:15:25.282Z,100169.78
2023-05-03T19:20:28.998Z,100175.25
2023-05-03T19:25:32.489Z,100187.78
2023-05-03T19:30:37.439Z,100180.06
2023-05-03T19:35:40.886Z,100199.75
2023-05-03T19:40:56.633Z,100191.34
2023-05-03T19:46:02.004Z,100206.72
2023-05-03T19:51:06.346Z,100208.03
2023-05-03T19:56:10.716Z,100204.88
2023-05-03T20:01:16.761Z,100214.31
2023-05-03T20:06:20.019Z,100220.38
2023-05-03T20:11:23.274Z,100222.97
2023-05-03T20:16:32.859Z,100222.81
2023-05-03T20:21:36.256Z,100237.56
2023-05-03T20:26:39.771Z,100239.81
2023-05-03T20:31:47.422Z,100239.38
2023-05-03T20:36:52.524Z,100245.06
2023-05-03T20:41:55.788Z,100248.88
2023-05-03T20:47:00.503Z,100254.50
2023-05-03T20:52:04.089Z,100258.41
2023-05-03T20:57:07.969Z,100268.31
2023-05-03T21:02:12.711Z,100272.06
2023-05-03T21:07:16.254Z,100275.72
2023-05-03T21:12:19.506Z,100273.28
2023-05-03T21:17:24.199Z,100281.38
2023-05-03T21:22:27.958Z,100277.09
2023-05-03T21:27:31.574Z,100283.31
2023-05-03T21:32:36.570Z,100286.19
2023-05-03T21:37:40.060Z,100285.41
2023-05-03T21:42:43.658Z,100281.09
2023-05-03T21:47:48.855Z,100289.09
2023-05-03T21:52:52.278Z,100287.47
2023-05-03T21:57:55.593Z,100287.56
2023-05-03T22:03:00.292Z,100295.63
2023-05-03T22:08:03.533Z,100294.84
2023-05-03T22:13:06.853Z,100286.06
2023-05-03T22:18:11.591Z,100297.69
2023-05-03T22:23:15.835Z,100295.13
2023-05-03T22:28:19.206Z,100297.03
2023-05-03T22:33:23.839Z,100292.75
2023-05-03T22:38:27.109Z,100297.28
2023-05-03T22:43:30.713Z,100297.44
2023-05-03T22:48:36.317Z,100300.31
2023-05-03T22:53:39.953Z,100300.56
2023-05-03T22:58:44.178Z,100307.81
2023-05-03T23:03:48.978Z,100313.16
2023-05-03T23:08:52.349Z,100314.94
2023-05-03T23:13:55.512Z,100310.69
2023-05-03T23:19:00.151Z,100316.97
2023-05-03T23:24:03.711Z,100310.03
2023-05-03T23:29:08.332Z,100316.22
2023-05-03T23:34:13.434Z,100308.38
2023-05-03T23:39:16.797Z,100317.16
2023-05-03T23:44:20.091Z,100314.56
2023-05-03T23:49:24.775Z,100322.47
2023-05-03T23:54:28.232Z,100320.75
2023-05-03T23:59:31.681Z,100322.53
